Bom Jardim, Brazil
Current Conditions -  °F | °C
As of 7:00 PM on Wednesday 22 Oct 2014 (Local Time) from SBME Reporting Station
Overcast Overcast  
Wind Chill: 72°   Ceiling: 2500
Heat Index: 72°   Visibility: 6mi
Dew Point: 63°   Wind: 5mph
Humidity: 73%   Direction: 180°S
Pressure: 30.18"   Gusts: NA
Location:  22.15°S, 42.42°W
Report Text: SBME 222100Z 18004KT 9999 BKN025 OVC070 22/17 Q1022
Loading
Personal Weather Stations






























Interactive Weather Map
Tropical Storm Tracking
New forecast layout! Learn more

10-Day Weather Forecast

Advertisements
Track Severe Weather on mobile